Time;durP1;ratioP1;P1;durP2;ratioP2;P2;SDS_P1;SDS_P2;PMS_P1;PMS_P2;Temp;Humidity;BMP_temperature;BMP_pressure;BME280_temperature;BME280_humidity;BME280_pressure;Samples;Min_cycle;Max_cycle;Signal;HPM_P1;HPM_P2
2021/08/05 00:02:09;;;;;;;7.23;4.70;;;23.50;99.90;;;;;;5096316;28;20171;-71
2021/08/05 00:04:35;;;;;;;6.93;4.97;;;23.50;99.90;;;;;;5095130;28;20192;-66
2021/08/05 00:07:00;;;;;;;5.10;4.60;;;23.40;99.90;;;;;;5096201;28;20451;-66
2021/08/05 00:09:26;;;;;;;5.43;4.87;;;23.40;99.90;;;;;;5095997;28;20989;-70
2021/08/05 00:11:52;;;;;;;8.10;5.70;;;23.40;99.90;;;;;;5095159;28;20705;-66
2021/08/05 00:14:17;;;;;;;6.30;5.33;;;23.40;99.90;;;;;;5094845;28;20209;-66
2021/08/05 00:16:43;;;;;;;7.40;5.30;;;23.40;99.90;;;;;;5096067;28;20225;-67
2021/08/05 00:19:08;;;;;;;7.23;4.87;;;23.40;99.90;;;;;;5096034;28;20219;-70
2021/08/05 00:21:34;;;;;;;5.03;4.60;;;23.30;99.90;;;;;;5096022;28;20192;-66
2021/08/05 00:24:00;;;;;;;8.10;4.73;;;23.30;99.90;;;;;;5094422;28;20196;-66
2021/08/05 00:26:26;;;;;;;6.50;5.00;;;23.30;99.90;;;;;;5096057;28;20670;-66
2021/08/05 00:28:51;;;;;;;5.50;5.00;;;23.30;99.90;;;;;;5095892;28;20424;-66
2021/08/05 00:31:17;;;;;;;5.57;5.07;;;23.30;99.90;;;;;;5094472;28;20204;-69
2021/08/05 00:33:43;;;;;;;7.30;5.00;;;23.20;99.90;;;;;;5094247;28;20196;-70
2021/08/05 00:36:09;;;;;;;6.47;5.87;;;23.20;99.90;;;;;;5095779;28;20401;-68
2021/08/05 00:38:34;;;;;;;5.70;4.93;;;23.20;99.90;;;;;;5094282;28;20172;-71
2021/08/05 00:41:00;;;;;;;6.03;5.33;;;23.10;99.90;;;;;;5095688;28;20176;-66
2021/08/05 00:43:26;;;;;;;5.60;4.90;;;23.10;99.90;;;;;;5095583;28;20629;-69
2021/08/05 00:45:51;;;;;;;5.20;4.70;;;23.10;99.90;;;;;;5095432;28;20204;-66
2021/08/05 00:48:17;;;;;;;5.70;5.20;;;23.10;99.90;;;;;;5095356;28;20161;-70
2021/08/05 00:50:43;;;;;;;10.83;5.60;;;23.10;99.90;;;;;;5095317;28;20196;-66
2021/08/05 00:53:08;;;;;;;5.70;4.67;;;23.00;99.90;;;;;;5095388;28;20397;-70
2021/08/05 00:55:34;;;;;;;7.90;5.77;;;23.00;99.90;;;;;;5095767;28;20210;-67
2021/08/05 00:58:00;;;;;;;7.30;4.93;;;23.00;99.90;;;;;;5093914;28;20181;-70
2021/08/05 01:00:27;;;;;;;5.77;5.20;;;23.00;99.90;;;;;;5095054;28;20463;-69
2021/08/05 01:03:13;;;;;;;6.97;5.97;;;23.00;99.90;;;;;;5095169;28;20413;-66
2021/08/05 01:05:46;;;;;;;6.47;5.67;;;22.90;99.90;;;;;;5093864;28;20440;-66
2021/08/05 01:08:18;;;;;;;6.27;5.20;;;22.90;99.90;;;;;;5095098;28;20401;-66
2021/08/05 01:10:52;;;;;;;5.20;4.70;;;22.90;99.90;;;;;;5095086;28;20460;-66
2021/08/05 01:13:24;;;;;;;6.27;5.70;;;22.90;99.90;;;;;;5095003;28;20392;-70
2021/08/05 01:15:53;;;;;;;6.90;5.70;;;22.80;99.90;;;;;;5093676;28;20921;-66
2021/08/05 01:18:33;;;;;;;8.37;5.83;;;22.80;99.90;;;;;;5094836;28;20397;-67
2021/08/05 01:21:04;;;;;;;6.73;6.03;;;22.80;99.90;;;;;;5094932;28;20393;-66
2021/08/05 01:23:39;;;;;;;7.30;6.60;;;22.80;99.90;;;;;;5094788;28;20431;-66
2021/08/05 01:26:08;;;;;;;7.17;6.07;;;22.70;99.90;;;;;;5094751;28;20421;-66
2021/08/05 01:28:35;;;;;;;6.73;6.13;;;22.70;99.90;;;;;;5094686;28;20562;-66
2021/08/05 01:31:03;;;;;;;6.93;5.97;;;22.70;99.90;;;;;;5093321;28;20413;-66
2021/08/05 01:33:30;;;;;;;7.73;6.93;;;22.60;99.90;;;;;;5094537;28;20558;-66
2021/08/05 01:35:57;;;;;;;7.17;6.57;;;22.60;99.90;;;;;;5094578;28;20840;-71
2021/08/05 01:38:23;;;;;;;12.90;6.90;;;22.60;99.90;;;;;;5094673;28;20454;-70
2021/08/05 01:40:51;;;;;;;8.20;7.40;;;22.60;99.90;;;;;;5094473;28;20445;-66
2021/08/05 01:43:17;;;;;;;8.63;6.93;;;22.50;99.90;;;;;;5094428;28;20921;-66
2021/08/05 01:45:44;;;;;;;7.80;7.03;;;22.50;99.90;;;;;;5094366;28;20456;-66
2021/08/05 01:48:12;;;;;;;7.77;6.90;;;22.50;99.90;;;;;;5093026;28;20458;-70
2021/08/05 01:50:39;;;;;;;8.10;7.30;;;22.50;99.90;;;;;;5092963;28;20498;-70
2021/08/05 01:53:05;;;;;;;8.30;7.17;;;22.50;99.90;;;;;;5094186;28;20464;-71
2021/08/05 01:55:31;;;;;;;13.93;7.97;;;22.50;99.90;;;;;;5093103;28;20466;-70
2021/08/05 01:57:58;;;;;;;12.80;7.97;;;22.50;99.90;;;;;;5094113;28;20457;-70
2021/08/05 02:00:25;;;;;;;10.27;8.00;;;22.50;99.90;;;;;;5094610;28;20212;-66
2021/08/05 02:02:53;;;;;;;11.40;8.70;;;22.50;99.90;;;;;;5092776;28;20933;-66
2021/08/05 02:05:58;;;;;;;9.50;7.80;;;22.50;99.90;;;;;;5092913;28;20467;-70
2021/08/05 02:08:37;;;;;;;9.97;8.97;;;22.50;99.90;;;;;;5092849;28;20413;-66
2021/08/05 02:11:04;;;;;;;8.53;7.57;;;22.50;99.90;;;;;;5093969;28;20412;-70
2021/08/05 02:13:36;;;;;;;8.93;8.10;;;22.50;99.90;;;;;;5093869;28;20413;-67
2021/08/05 02:16:06;;;;;;;8.90;8.00;;;22.50;99.90;;;;;;5093916;28;20397;-71
2021/08/05 02:18:34;;;;;;;11.73;8.17;;;22.50;99.90;;;;;;5092620;28;20806;-67
2021/08/05 02:21:02;;;;;;;10.30;7.77;;;22.50;99.90;;;;;;5093797;28;20429;-70
2021/08/05 02:23:29;;;;;;;10.17;8.13;;;22.40;99.90;;;;;;5093806;28;20401;-71
2021/08/05 02:25:55;;;;;;;10.20;8.20;;;22.40;99.90;;;;;;5092475;28;20481;-67
2021/08/05 02:28:23;;;;;;;8.40;7.47;;;22.40;99.90;;;;;;5093852;28;20559;-65
2021/08/05 02:30:50;;;;;;;10.13;8.53;;;22.30;99.90;;;;;;5092330;28;20433;-64
2021/08/05 02:33:17;;;;;;;10.67;8.20;;;22.40;99.90;;;;;;5093648;28;20407;-69
2021/08/05 02:35:45;;;;;;;9.67;8.03;;;22.30;99.90;;;;;;5093111;28;20449;-65
2021/08/05 02:38:11;;;;;;;8.20;7.40;;;22.30;99.90;;;;;;5093525;28;20451;-66
2021/08/05 02:40:37;;;;;;;10.33;8.60;;;22.30;99.90;;;;;;5093520;28;20513;-70
2021/08/05 02:43:06;;;;;;;10.33;8.30;;;22.30;99.90;;;;;;5093536;28;20922;-66
2021/08/05 02:45:34;;;;;;;8.30;7.40;;;22.30;99.90;;;;;;5093989;28;20440;-66
2021/08/05 02:48:01;;;;;;;11.30;7.40;;;22.30;99.90;;;;;;5093489;28;20461;-70
2021/08/05 02:50:28;;;;;;;10.80;8.07;;;22.30;99.90;;;;;;5092470;28;20467;-67
2021/08/05 02:52:54;;;;;;;10.17;9.07;;;22.30;99.90;;;;;;5093383;28;20979;-66
2021/08/05 02:55:20;;;;;;;9.40;8.40;;;22.30;99.90;;;;;;5093991;28;20491;-66
2021/08/05 02:57:47;;;;;;;8.23;7.07;;;22.30;99.90;;;;;;5092221;28;20410;-66
2021/08/05 03:00:13;;;;;;;8.50;7.60;;;22.30;99.90;;;;;;5093804;28;20432;-70
2021/08/05 03:02:41;;;;;;;9.40;7.60;;;22.30;99.90;;;;;;5093579;28;20777;-66
2021/08/05 03:05:12;;;;;;;10.13;8.57;;;22.30;99.90;;;;;;5092255;28;20449;-66
2021/08/05 03:07:37;;;;;;;9.80;7.10;;;22.30;99.90;;;;;;5093613;28;20415;-70
2021/08/05 03:10:05;;;;;;;10.17;8.10;;;22.30;99.90;;;;;;5093125;28;20555;-66
2021/08/05 03:12:31;;;;;;;8.97;8.03;;;22.30;99.90;;;;;;5093313;28;20212;-70
2021/08/05 03:14:57;;;;;;;7.93;7.13;;;22.30;99.90;;;;;;5093561;28;20519;-70
2021/08/05 03:17:22;;;;;;;8.67;7.77;;;22.30;99.90;;;;;;5092112;28;20242;-66
2021/08/05 03:19:48;;;;;;;9.50;7.67;;;22.30;99.90;;;;;;5093529;28;21006;-66
2021/08/05 03:22:14;;;;;;;10.13;8.30;;;22.30;99.90;;;;;;5093269;28;20664;-70
2021/08/05 03:24:41;;;;;;;12.07;8.57;;;22.30;99.90;;;;;;5092039;28;20229;-66
2021/08/05 03:27:07;;;;;;;9.37;8.30;;;22.30;99.90;;;;;;5106476;28;20587;-70
2021/08/05 03:29:33;;;;;;;16.70;7.87;;;22.30;99.90;;;;;;5111937;28;20442;-66
2021/08/05 03:31:58;;;;;;;8.57;7.57;;;22.30;99.90;;;;;;5112848;28;20458;-66
2021/08/05 03:34:24;;;;;;;10.70;8.93;;;22.30;99.90;;;;;;5129353;28;20203;-70
2021/08/05 03:36:50;;;;;;;9.20;8.30;;;22.20;99.90;;;;;;5129383;28;20176;-66
2021/08/05 03:39:15;;;;;;;11.50;9.37;;;22.20;99.90;;;;;;5112301;28;20225;-66
2021/08/05 03:41:41;;;;;;;9.20;8.30;;;22.20;99.90;;;;;;5128005;28;20180;-65
2021/08/05 03:44:06;;;;;;;10.43;8.47;;;22.20;99.90;;;;;;5111291;28;20195;-70
2021/08/05 03:46:32;;;;;;;9.23;8.33;;;22.20;99.90;;;;;;5111925;28;20167;-67
2021/08/05 03:48:57;;;;;;;9.70;8.70;;;22.20;99.90;;;;;;5114850;28;20249;-65
2021/08/05 03:51:23;;;;;;;10.30;8.50;;;22.20;99.90;;;;;;5114739;28;20226;-70
2021/08/05 03:53:49;;;;;;;9.60;8.47;;;22.20;99.90;;;;;;5130694;27;20225;-66
2021/08/05 03:56:14;;;;;;;9.13;8.03;;;22.20;99.90;;;;;;5115192;28;20292;-70
2021/08/05 03:58:40;;;;;;;12.07;9.17;;;22.20;99.90;;;;;;5116887;28;20179;-70
2021/08/05 04:01:05;;;;;;;11.83;8.77;;;22.20;99.90;;;;;;5132635;27;20695;-66
2021/08/05 04:03:31;;;;;;;8.97;7.90;;;22.10;99.90;;;;;;5116700;28;20172;-70
2021/08/05 04:05:57;;;;;;;13.63;9.33;;;22.20;99.90;;;;;;5116693;28;20184;-70
2021/08/05 04:08:22;;;;;;;12.47;9.20;;;22.10;99.90;;;;;;5116757;28;20183;-66
2021/08/05 04:10:48;;;;;;;11.60;9.73;;;22.10;99.90;;;;;;5116646;28;20234;-69
2021/08/05 04:13:13;;;;;;;9.83;8.57;;;22.10;99.90;;;;;;5132342;27;20182;-66
2021/08/05 04:15:41;;;;;;;10.10;9.10;;;22.10;99.90;;;;;;5132359;27;20207;-66
2021/08/05 04:18:07;;;;;;;11.30;9.30;;;22.20;99.90;;;;;;5116403;28;20172;-66
2021/08/05 04:20:33;;;;;;;9.23;8.30;;;22.20;99.90;;;;;;5132501;27;20983;-65
2021/08/05 04:22:58;;;;;;;17.17;8.90;;;22.20;99.90;;;;;;5116270;28;20641;-66
2021/08/05 04:25:24;;;;;;;10.93;9.13;;;22.20;99.90;;;;;;5116785;28;20514;-66
2021/08/05 04:27:49;;;;;;;11.03;8.90;;;22.20;99.90;;;;;;5116316;28;20172;-67
2021/08/05 04:30:15;;;;;;;11.27;9.27;;;22.20;99.90;;;;;;5132252;27;20668;-70
2021/08/05 04:32:41;;;;;;;9.93;8.77;;;22.20;99.90;;;;;;5116085;28;20242;-66
2021/08/05 04:35:08;;;;;;;9.23;8.33;;;22.20;99.90;;;;;;5116489;28;20196;-66
2021/08/05 04:37:34;;;;;;;10.43;9.30;;;22.20;99.90;;;;;;5116119;28;20178;-66
2021/08/05 04:40:00;;;;;;;10.83;9.57;;;22.20;99.90;;;;;;5131753;27;20452;-70
2021/08/05 04:42:26;;;;;;;10.80;8.27;;;22.30;99.90;;;;;;5095371;28;20542;-68
2021/08/05 04:44:51;;;;;;;8.77;7.97;;;22.30;99.90;;;;;;5089781;28;20204;-70
2021/08/05 04:47:17;;;;;;;10.17;8.37;;;22.30;99.90;;;;;;5093617;28;20230;-66
2021/08/05 04:49:43;;;;;;;11.10;8.93;;;22.30;99.90;;;;;;5075566;28;20212;-70
2021/08/05 04:52:08;;;;;;;12.13;9.20;;;22.40;99.90;;;;;;5077436;28;20220;-66
2021/08/05 04:54:34;;;;;;;10.83;9.40;;;22.40;99.90;;;;;;5091024;28;20208;-70
2021/08/05 04:57:01;;;;;;;11.60;8.67;;;22.40;99.90;;;;;;5079975;28;20177;-70
2021/08/05 04:59:27;;;;;;;10.00;9.00;;;22.40;99.90;;;;;;5087082;28;20449;-67
2021/08/05 05:01:52;;;;;;;9.57;8.43;;;22.50;99.90;;;;;;5084739;28;20420;-70
2021/08/05 05:04:18;;;;;;;10.63;9.40;;;22.50;99.90;;;;;;5079088;28;20208;-70
2021/08/05 05:06:43;;;;;;;10.33;8.37;;;22.60;99.90;;;;;;5092768;28;20181;-70
2021/08/05 05:09:09;;;;;;;9.73;8.40;;;22.60;99.90;;;;;;5103972;28;20228;-71
2021/08/05 05:11:35;;;;;;;10.60;8.97;;;22.70;99.90;;;;;;5090251;28;20215;-66
2021/08/05 05:14:00;;;;;;;10.73;9.63;;;22.70;99.90;;;;;;5094850;28;20198;-68
2021/08/05 05:16:26;;;;;;;9.27;8.30;;;22.80;99.90;;;;;;5093726;28;20242;-70
2021/08/05 05:18:52;;;;;;;11.30;9.13;;;22.80;99.90;;;;;;5090246;28;20204;-66
2021/08/05 05:21:17;;;;;;;8.60;7.73;;;22.90;99.90;;;;;;5105738;28;20705;-69
2021/08/05 05:23:43;;;;;;;14.70;9.87;;;23.00;99.90;;;;;;5098263;28;20181;-67
2021/08/05 05:26:08;;;;;;;11.77;8.60;;;23.00;99.90;;;;;;5102954;28;20197;-66
2021/08/05 05:28:35;;;;;;;11.03;9.60;;;23.10;99.90;;;;;;5102828;28;20192;-71
2021/08/05 05:31:02;;;;;;;12.07;9.13;;;23.20;99.90;;;;;;5073044;28;20284;-70
2021/08/05 05:33:28;;;;;;;10.00;9.00;;;23.20;99.90;;;;;;5073574;28;20917;-71
2021/08/05 05:35:54;;;;;;;12.73;10.30;;;23.30;99.90;;;;;;5074426;28;20442;-71
2021/08/05 05:38:19;;;;;;;10.70;9.57;;;23.40;99.90;;;;;;5077545;28;20455;-70
2021/08/05 05:40:45;;;;;;;12.10;10.17;;;23.50;99.90;;;;;;5095678;28;20200;-66
2021/08/05 05:43:12;;;;;;;10.80;9.63;;;23.60;99.90;;;;;;5093169;28;20164;-66
2021/08/05 05:45:38;;;;;;;10.80;9.10;;;23.60;99.90;;;;;;5087505;28;20445;-66
2021/08/05 05:48:05;;;;;;;11.03;9.43;;;23.70;99.90;;;;;;5084721;28;20497;-70
2021/08/05 05:50:31;;;;;;;10.03;9.00;;;23.80;99.90;;;;;;5082680;28;20705;-71
2021/08/05 05:52:58;;;;;;;9.73;8.13;;;23.90;99.90;;;;;;5085131;28;20468;-66
2021/08/05 05:55:24;;;;;;;9.60;8.70;;;24.00;99.90;;;;;;5080587;28;21025;-69
2021/08/05 05:57:50;;;;;;;11.57;8.13;;;24.10;99.90;;;;;;5084618;28;20418;-71
2021/08/05 06:00:16;;;;;;;8.50;7.70;;;24.20;99.90;;;;;;5089954;28;20455;-71
2021/08/05 06:02:41;;;;;;;8.00;7.20;;;24.30;99.90;;;;;;5084571;28;20434;-70
2021/08/05 06:05:08;;;;;;;7.67;6.97;;;24.40;99.90;;;;;;5086603;28;20205;-66
2021/08/05 06:07:48;;;;;;;8.70;6.93;;;24.50;99.90;;;;;;5085834;28;20209;-67
2021/08/05 06:10:15;;;;;;;12.20;8.03;;;24.60;99.90;;;;;;5081767;28;20485;-66
2021/08/05 06:12:41;;;;;;;9.67;7.33;;;24.70;99.90;;;;;;5084331;28;20485;-71
2021/08/05 06:15:08;;;;;;;9.20;7.30;;;24.80;99.90;;;;;;5094899;28;20812;-66
2021/08/05 06:17:33;;;;;;;6.70;6.10;;;24.90;99.90;;;;;;5109812;27;20434;-66
2021/08/05 06:19:59;;;;;;;7.70;6.77;;;25.10;99.90;;;;;;5093448;28;20466;-67
2021/08/05 06:22:25;;;;;;;9.00;7.57;;;25.20;99.90;;;;;;5092638;28;20198;-68
2021/08/05 06:24:51;;;;;;;8.33;7.20;;;25.30;99.90;;;;;;5090883;28;20447;-67
2021/08/05 06:27:16;;;;;;;8.50;6.60;;;25.30;99.90;;;;;;5095376;28;20431;-66
2021/08/05 06:29:42;;;;;;;7.53;6.83;;;25.40;99.90;;;;;;5094704;28;20574;-66
2021/08/05 06:32:07;;;;;;;9.23;7.10;;;25.50;99.90;;;;;;5089489;28;20269;-69
2021/08/05 06:34:33;;;;;;;7.60;6.90;;;25.60;99.90;;;;;;5088282;28;20206;-66
2021/08/05 06:36:58;;;;;;;7.47;6.80;;;25.70;99.90;;;;;;5100224;28;20184;-67
2021/08/05 06:39:24;;;;;;;8.00;7.30;;;25.80;99.90;;;;;;5078200;28;20211;-71
2021/08/05 06:41:50;;;;;;;6.80;6.17;;;25.90;99.90;;;;;;5084316;28;20180;-71
2021/08/05 06:44:15;;;;;;;8.23;6.47;;;26.00;99.90;;;;;;5088153;28;20198;-66
2021/08/05 06:46:41;;;;;;;8.17;6.80;;;26.00;99.90;;;;;;5083916;28;20188;-71
2021/08/05 06:49:07;;;;;;;7.33;6.60;;;26.10;99.90;;;;;;5090338;28;20289;-67
2021/08/05 06:51:33;;;;;;;6.97;6.23;;;26.20;99.90;;;;;;5090584;28;20239;-68
2021/08/05 06:53:58;;;;;;;9.03;6.50;;;26.20;99.90;;;;;;5087034;28;20196;-66
2021/08/05 06:56:25;;;;;;;7.70;7.00;;;26.20;99.90;;;;;;5091953;28;20582;-71
2021/08/05 06:58:51;;;;;;;10.23;6.60;;;26.20;99.90;;;;;;5089633;28;20686;-66
2021/08/05 07:01:16;;;;;;;8.67;6.43;;;26.20;99.90;;;;;;5085705;28;20429;-70
2021/08/05 07:03:42;;;;;;;7.90;7.30;;;26.20;99.90;;;;;;5090521;28;20191;-71
2021/08/05 07:06:07;;;;;;;8.13;6.90;;;26.20;99.90;;;;;;5090595;28;20187;-71
2021/08/05 07:08:34;;;;;;;7.23;6.43;;;26.20;99.90;;;;;;5096343;28;20188;-66
2021/08/05 07:11:00;;;;;;;7.80;7.00;;;26.20;99.90;;;;;;5093624;28;20231;-66
2021/08/05 07:13:25;;;;;;;11.30;6.40;;;26.20;99.90;;;;;;5086879;28;20444;-67
2021/08/05 07:15:51;;;;;;;7.00;6.30;;;26.20;99.90;;;;;;5090233;28;20205;-71
2021/08/05 07:18:16;;;;;;;7.83;7.10;;;26.20;99.90;;;;;;5091592;28;20180;-66
2021/08/05 07:20:42;;;;;;;7.10;6.40;;;26.20;99.90;;;;;;5086346;28;20661;-66
2021/08/05 07:23:08;;;;;;;8.43;6.43;;;26.20;99.90;;;;;;5085080;28;20187;-67
2021/08/05 07:25:33;;;;;;;7.20;6.60;;;26.20;99.90;;;;;;5095268;28;20294;-66
2021/08/05 07:28:01;;;;;;;8.20;6.57;;;26.20;99.90;;;;;;5094061;28;20634;-71
2021/08/05 07:30:28;;;;;;;7.90;7.10;;;26.20;99.90;;;;;;5091922;28;20192;-67
2021/08/05 07:32:54;;;;;;;6.57;5.97;;;26.20;99.90;;;;;;5092689;28;20958;-71
2021/08/05 07:35:19;;;;;;;9.30;7.10;;;26.20;99.90;;;;;;5098177;28;20612;-71
2021/08/05 07:37:45;;;;;;;10.00;6.13;;;26.10;99.90;;;;;;5090708;28;20177;-71
2021/08/05 07:40:11;;;;;;;6.60;6.00;;;26.10;99.90;;;;;;5086545;28;20200;-71
2021/08/05 07:42:37;;;;;;;6.63;6.00;;;26.10;99.90;;;;;;5087244;28;20202;-71
2021/08/05 07:45:03;;;;;;;7.33;6.27;;;26.20;99.90;;;;;;5089789;28;20459;-71
2021/08/05 07:47:29;;;;;;;6.63;5.83;;;26.10;99.90;;;;;;5087753;28;20200;-67
2021/08/05 07:49:54;;;;;;;6.40;5.80;;;26.10;99.90;;;;;;5086709;28;20660;-66
2021/08/05 07:52:20;;;;;;;7.53;6.63;;;26.10;99.90;;;;;;5093282;28;20677;-66
2021/08/05 07:54:45;;;;;;;7.83;6.87;;;26.00;99.90;;;;;;5093392;28;20276;-67
2021/08/05 07:57:11;;;;;;;6.83;6.17;;;26.00;99.90;;;;;;5090039;28;20574;-72
2021/08/05 09:02:08;;;;;;;9.80;8.80;;;22.80;99.90;;;;;;4847963;24;20514;-91
2021/08/05 09:04:35;;;;;;;12.77;9.40;;;22.70;99.90;;;;;;4737124;30;20450;-93
2021/08/05 09:07:01;;;;;;;12.00;9.30;;;22.60;99.90;;;;;;4721498;30;20485;-90
2021/08/05 09:09:27;;;;;;;10.90;9.33;;;22.60;99.90;;;;;;4725985;30;20443;-90
2021/08/05 09:11:52;;;;;;;8.83;7.93;;;22.60;99.90;;;;;;4720856;30;20566;-89
2021/08/05 09:14:41;;;;;;;9.30;7.30;;;22.50;99.90;;;;;;4720237;30;20439;-90
2021/08/05 09:17:31;;;;;;;8.70;7.80;;;22.40;99.90;;;;;;4717552;30;20569;-87
2021/08/05 09:20:07;;;;;;;8.40;6.97;;;22.40;99.90;;;;;;4714386;30;21001;-90
2021/08/05 09:22:45;;;;;;;8.70;7.43;;;22.30;99.90;;;;;;4717408;30;20491;-90
2021/08/05 09:25:20;;;;;;;8.27;7.33;;;22.30;99.90;;;;;;4717857;30;21011;-91
2021/08/05 09:27:47;;;;;;;9.70;8.70;;;22.20;99.90;;;;;;4715884;30;20957;-90
2021/08/05 09:30:36;;;;;;;9.77;7.83;;;22.20;99.90;;;;;;4724349;30;20517;-89
2021/08/05 09:33:09;;;;;;;12.00;9.23;;;22.20;99.90;;;;;;4723511;30;20479;-89
2021/08/05 09:35:35;;;;;;;9.27;7.40;;;22.30;99.90;;;;;;4720726;30;20479;-89
2021/08/05 09:38:25;;;;;;;9.33;8.33;;;22.30;99.90;;;;;;4714909;30;20431;-90
2021/08/05 09:41:07;;;;;;;15.97;8.27;;;22.30;99.90;;;;;;4714202;30;20517;-93
2021/08/05 09:43:34;;;;;;;9.43;8.13;;;22.40;99.90;;;;;;4716734;30;20528;-93
2021/08/05 09:46:00;;;;;;;11.50;8.70;;;22.50;99.90;;;;;;4722917;30;20467;-91
2021/08/05 09:48:40;;;;;;;10.20;8.63;;;22.50;99.90;;;;;;4716959;30;20507;-90
2021/08/05 09:51:11;;;;;;;11.67;8.70;;;22.60;99.90;;;;;;4714667;30;20313;-93
2021/08/05 09:54:05;;;;;;;11.60;8.27;;;22.60;99.90;;;;;;4721034;30;20449;-89
2021/08/05 09:56:36;;;;;;;9.53;8.57;;;22.60;99.90;;;;;;4714634;30;20577;-91
2021/08/05 09:59:11;;;;;;;10.93;9.70;;;22.60;99.90;;;;;;4713864;30;20523;-91
2021/08/05 10:02:00;;;;;;;11.10;8.83;;;22.60;99.90;;;;;;4713341;30;20490;-91
2021/08/05 10:04:29;;;;;;;10.13;7.57;;;22.60;99.90;;;;;;4718028;30;20443;-92
2021/08/05 10:06:59;;;;;;;9.73;8.80;;;22.50;99.90;;;;;;4725504;30;20472;-91
2021/08/05 10:09:26;;;;;;;11.47;8.83;;;22.40;99.90;;;;;;4716848;30;20482;-88
2021/08/05 10:12:07;;;;;;;12.93;9.40;;;22.30;99.90;;;;;;4711568;30;21023;-92
2021/08/05 10:14:33;;;;;;;11.77;9.50;;;22.30;99.90;;;;;;4709436;30;20789;-88
2021/08/05 10:16:58;;;;;;;10.27;8.40;;;22.30;99.90;;;;;;4713056;30;20549;-90
2021/08/05 10:19:25;;;;;;;10.50;8.20;;;22.40;99.90;;;;;;4715788;30;20434;-92
2021/08/05 10:21:51;;;;;;;13.20;8.73;;;22.30;99.90;;;;;;4717331;30;20581;-92
2021/08/05 10:24:17;;;;;;;11.90;8.00;;;22.30;99.90;;;;;;4726970;30;20530;-92
2021/08/05 10:26:44;;;;;;;12.73;9.10;;;22.30;99.90;;;;;;4713123;30;20555;-89
2021/08/05 10:29:14;;;;;;;11.97;8.43;;;22.30;99.90;;;;;;4714114;30;20622;-88
2021/08/05 10:31:41;;;;;;;13.67;9.10;;;22.40;99.90;;;;;;4714832;30;20493;-88
2021/08/05 10:34:07;;;;;;;13.10;8.70;;;22.30;99.90;;;;;;4715450;30;20427;-88
2021/08/05 10:36:33;;;;;;;13.50;9.13;;;22.40;99.90;;;;;;4716721;30;20471;-89
2021/08/05 10:38:59;;;;;;;10.33;8.80;;;22.30;99.90;;;;;;4716711;30;20934;-89
2021/08/05 10:41:28;;;;;;;9.70;8.40;;;22.40;99.90;;;;;;4713215;30;20222;-90
2021/08/05 10:43:54;;;;;;;11.50;9.60;;;22.40;99.90;;;;;;4716112;30;20459;-91
2021/08/05 10:46:21;;;;;;;14.70;8.90;;;22.40;99.90;;;;;;4727854;30;20467;-87
2021/08/05 10:48:47;;;;;;;13.37;9.17;;;22.40;99.90;;;;;;4718723;30;20443;-88
2021/08/05 10:51:13;;;;;;;13.20;11.07;;;22.50;99.90;;;;;;4714173;30;20586;-92
2021/08/05 10:53:43;;;;;;;11.37;10.23;;;22.50;99.90;;;;;;4721450;30;20539;-91
2021/08/05 10:56:24;;;;;;;10.50;9.43;;;22.50;99.90;;;;;;4719565;30;20216;-87
2021/08/05 10:59:11;;;;;;;11.53;10.33;;;22.40;99.90;;;;;;4712828;30;20785;-87
2021/08/05 11:01:49;;;;;;;11.37;10.13;;;22.40;99.90;;;;;;4719415;30;20517;-89
2021/08/05 11:04:39;;;;;;;11.90;9.90;;;22.30;99.90;;;;;;4725542;30;20530;-88
2021/08/05 11:07:27;;;;;;;12.37;9.60;;;22.30;99.90;;;;;;4717050;30;20521;-88
2021/08/05 11:10:13;;;;;;;13.77;10.23;;;22.30;99.90;;;;;;4710825;30;20454;-89
2021/08/05 11:12:41;;;;;;;11.90;10.00;;;22.20;99.90;;;;;;4728277;30;20483;-88
2021/08/05 11:15:22;;;;;;;13.07;10.67;;;22.10;99.90;;;;;;4718129;30;20520;-92
2021/08/05 11:18:15;;;;;;;13.13;10.90;;;22.10;99.90;;;;;;4723720;30;20554;-88
2021/08/05 11:20:42;;;;;;;16.27;12.03;;;22.20;99.90;;;;;;4719189;30;20470;-90
2021/08/05 11:23:34;;;;;;;12.53;11.10;;;22.30;99.90;;;;;;4717240;30;20600;-88
2021/08/05 11:26:00;;;;;;;15.37;11.80;;;22.40;99.90;;;;;;4725300;30;20466;-88
2021/08/05 11:28:32;;;;;;;13.17;11.53;;;22.50;99.90;;;;;;4714232;30;20459;-88
2021/08/05 11:31:09;;;;;;;13.60;11.97;;;22.60;99.90;;;;;;4728183;30;20601;-88
2021/08/05 11:36:32;;;;;;;12.30;11.00;;;22.80;99.90;;;;;;4718533;30;20475;-88
2021/08/05 11:39:22;;;;;;;12.10;10.90;;;22.90;99.90;;;;;;4713551;30;20463;-90
2021/08/05 11:41:53;;;;;;;12.33;11.03;;;23.00;99.90;;;;;;4725936;30;20477;-90
2021/08/05 11:44:30;;;;;;;13.13;11.83;;;23.00;99.90;;;;;;4719761;30;20977;-89
2021/08/05 11:47:05;;;;;;;12.83;11.50;;;23.10;99.90;;;;;;4719704;30;20485;-87
2021/08/05 11:49:36;;;;;;;13.30;12.00;;;23.10;99.90;;;;;;4719798;30;20489;-90
2021/08/05 11:52:16;;;;;;;14.20;12.80;;;23.10;99.90;;;;;;4717760;30;20497;-92
2021/08/05 11:55:00;;;;;;;16.73;14.93;;;23.10;99.90;;;;;;4717947;30;20480;-91
2021/08/05 11:57:29;;;;;;;15.77;14.17;;;23.10;99.90;;;;;;4719955;30;20446;-90
2021/08/05 11:59:56;;;;;;;15.27;13.80;;;23.10;99.90;;;;;;4717380;30;20849;-91
2021/08/05 12:02:26;;;;;;;15.40;13.80;;;23.20;99.90;;;;;;4716709;30;20474;-89
2021/08/05 12:04:58;;;;;;;16.07;14.60;;;23.20;99.90;;;;;;4727321;30;20473;-89
2021/08/05 12:07:33;;;;;;;16.17;14.77;;;23.10;99.90;;;;;;4729842;30;20443;-90
2021/08/05 12:10:17;;;;;;;15.60;13.90;;;23.10;99.90;;;;;;4727943;30;20462;-92
2021/08/05 12:12:52;;;;;;;16.73;15.33;;;23.10;99.90;;;;;;4720549;30;20497;-91
2021/08/05 12:15:27;;;;;;;15.50;14.10;;;23.10;99.90;;;;;;4717028;30;20462;-92
2021/08/05 12:17:53;;;;;;;17.67;15.33;;;23.10;99.90;;;;;;4717401;30;20481;-88
2021/08/05 12:20:19;;;;;;;15.30;13.83;;;23.10;99.90;;;;;;4712354;30;20901;-86
2021/08/05 12:22:48;;;;;;;15.73;14.23;;;23.10;99.90;;;;;;4714532;30;20454;-90
2021/08/05 12:25:33;;;;;;;16.97;15.23;;;23.20;99.90;;;;;;4714002;30;20588;-87
2021/08/05 12:27:58;;;;;;;16.27;14.70;;;23.20;99.90;;;;;;4736045;30;20435;-90
2021/08/05 12:30:43;;;;;;;16.00;14.30;;;23.20;99.90;;;;;;4735456;30;21009;-87
2021/08/05 12:33:15;;;;;;;18.30;15.80;;;23.30;99.90;;;;;;4714951;30;20260;-89
2021/08/05 12:35:42;;;;;;;16.50;15.00;;;23.40;99.90;;;;;;4715841;30;20479;-85
2021/08/05 12:38:11;;;;;;;14.63;13.23;;;23.50;99.90;;;;;;4715770;30;20431;-89
2021/08/05 12:40:43;;;;;;;15.27;13.97;;;23.60;99.90;;;;;;4718672;30;20467;-89
2021/08/05 12:43:10;;;;;;;15.37;13.80;;;23.70;99.90;;;;;;4720299;30;20428;-88
2021/08/05 12:45:43;;;;;;;15.60;14.20;;;23.80;99.90;;;;;;4722097;30;20471;-92
2021/08/05 12:48:09;;;;;;;15.57;14.17;;;23.90;99.90;;;;;;4719152;30;20431;-92
2021/08/05 12:50:44;;;;;;;14.13;12.83;;;24.00;99.90;;;;;;4715756;30;20483;-89
2021/08/05 12:53:24;;;;;;;14.70;13.40;;;24.10;99.90;;;;;;4722403;30;20536;-91
2021/08/05 12:55:51;;;;;;;14.70;13.20;;;24.10;99.90;;;;;;4737887;30;20483;-92
2021/08/05 12:58:22;;;;;;;13.77;12.50;;;24.10;99.90;;;;;;4727855;30;20537;-89
2021/08/05 13:00:49;;;;;;;12.40;11.30;;;24.20;99.90;;;;;;4719365;30;20520;-90
2021/08/05 13:03:15;;;;;;;12.77;11.77;;;24.30;99.90;;;;;;4716734;30;20444;-90
2021/08/05 13:05:54;;;;;;;12.87;11.57;;;24.40;99.90;;;;;;4714306;30;20546;-89
2021/08/05 13:08:34;;;;;;;12.13;11.10;;;24.60;99.90;;;;;;4712527;30;20452;-89
2021/08/05 13:11:03;;;;;;;12.33;11.13;;;24.70;99.90;;;;;;4714382;30;20469;-87
2021/08/05 13:13:50;;;;;;;12.63;11.33;;;24.80;99.90;;;;;;4721295;30;20487;-91
2021/08/05 13:16:22;;;;;;;11.07;10.17;;;24.90;99.90;;;;;;4713266;30;20477;-87
2021/08/05 13:19:10;;;;;;;12.70;11.70;;;25.00;99.90;;;;;;4715626;30;20505;-89
2021/08/05 13:21:45;;;;;;;11.43;10.47;;;25.10;99.90;;;;;;4706948;30;20486;-89
2021/08/05 13:24:13;;;;;;;12.57;11.50;;;25.20;99.90;;;;;;4706202;30;20793;-88
2021/08/05 13:26:39;;;;;;;10.87;9.90;;;25.30;99.90;;;;;;4719140;30;20474;-87
2021/08/05 13:29:05;;;;;;;12.30;11.13;;;25.30;99.90;;;;;;4722808;30;20912;-89
2021/08/05 13:31:31;;;;;;;16.73;11.07;;;25.30;99.90;;;;;;4722794;30;20500;-84
2021/08/05 13:34:11;;;;;;;15.00;13.70;;;25.30;99.90;;;;;;4725943;30;20219;-86
2021/08/05 13:36:43;;;;;;;19.03;17.03;;;25.30;99.90;;;;;;4725396;30;20587;-87
2021/08/05 13:39:09;;;;;;;15.17;13.90;;;25.20;99.90;;;;;;4698267;30;20521;-86
2021/08/05 13:41:34;;;;;;;14.73;13.50;;;25.20;99.90;;;;;;4733509;30;20483;-86
2021/08/05 13:44:01;;;;;;;14.03;12.73;;;25.20;99.90;;;;;;4717430;30;20212;-86
2021/08/05 13:46:27;;;;;;;16.23;12.30;;;25.10;99.90;;;;;;4715370;30;20236;-85
2021/08/05 13:48:56;;;;;;;14.90;13.70;;;25.00;99.90;;;;;;4719445;30;20952;-85
2021/08/05 13:51:23;;;;;;;14.03;12.70;;;25.00;99.90;;;;;;4715628;30;20513;-86
2021/08/05 13:53:49;;;;;;;14.33;13.00;;;24.90;99.90;;;;;;4719771;30;20993;-86